Terminal Aerodrome Forecast
Issued by NWS Cleveland, OH

Home | Current Version | Previous Version | Graphics & Text | Print | Product List | Glossary On
Versions: 1 2 3 4 5 6 7 8 9 10 11 12 13 14 15 16 17 18 19 20 21 22 23 24 25 26
000
FTUS41 KCLE 022300
TAFYNG
TAF
KYNG 022334Z 0300/0324 33005KT P6SM SCT200
     FM031200 12008KT P6SM SCT040 OVC100
     FM031700 15012KT 4SM -FZRASNPL BR SCT015 OVC030
     FM032100 17015KT 2SM -RA BR OVC005=

USA.gov is the U.S. government's official web portal to all federal, state and local government web resources and services.